Time;durP1;ratioP1;P1;durP2;ratioP2;P2;SDS_P1;SDS_P2;PMS_P1;PMS_P2;Temp;Humidity;BMP_temperature;BMP_pressure;BME280_temperature;BME280_humidity;BME280_pressure;Samples;Min_cycle;Max_cycle;Signal;HPM_P1;HPM_P2
2022/10/12 00:07:38;;;;;;;13.45;4.60;;;8.10;99.90;;;;;;21076225;28;20089;-49
2022/10/12 00:17:47;;;;;;;8.45;5.25;;;8.50;99.90;;;;;;21067667;28;20132;-51
2022/10/12 00:27:56;;;;;;;8.05;5.15;;;8.90;99.90;;;;;;21063935;28;20036;-51
2022/10/12 00:38:05;;;;;;;9.65;5.13;;;9.00;99.90;;;;;;21071761;28;20074;-52
2022/10/12 00:48:15;;;;;;;9.95;4.95;;;9.60;99.90;;;;;;21073461;28;20580;-51
2022/10/12 00:58:30;;;;;;;8.77;5.17;;;9.60;99.90;;;;;;21037620;28;20033;-50
2022/10/12 01:08:41;;;;;;;10.85;5.00;;;9.50;99.90;;;;;;21026824;28;20032;-49
2022/10/12 01:19:14;;;;;;;11.20;4.97;;;9.40;99.90;;;;;;20981375;28;20044;-50
2022/10/12 01:29:43;;;;;;;8.88;5.20;;;9.50;99.90;;;;;;20923957;28;20037;-59
2022/10/12 01:39:56;;;;;;;10.48;4.85;;;9.20;99.90;;;;;;20909572;28;20482;-52
2022/10/12 01:50:48;;;;;;;9.15;4.95;;;8.80;99.90;;;;;;20922889;28;20470;-59
2022/10/12 02:01:02;;;;;;;10.80;4.75;;;8.50;99.90;;;;;;20962109;28;20070;-49
2022/10/12 02:11:26;;;;;;;12.02;4.30;;;8.20;99.90;;;;;;20827464;28;20041;-50
2022/10/12 02:21:38;;;;;;;10.95;4.95;;;8.10;99.90;;;;;;20803724;28;20615;-50
2022/10/12 02:31:54;;;;;;;9.98;5.40;;;8.10;99.90;;;;;;20809620;28;20049;-50
2022/10/12 02:42:11;;;;;;;7.25;4.57;;;8.00;99.90;;;;;;20822376;28;20041;-51
2022/10/12 02:53:08;;;;;;;10.63;5.10;;;8.00;99.90;;;;;;20824495;28;20029;-47
2022/10/12 03:04:33;;;;;;;10.57;5.95;;;8.00;99.90;;;;;;20729436;28;20046;-47
2022/10/12 03:15:50;;;;;;;12.15;6.13;;;7.90;99.90;;;;;;20577077;28;20460;-48
2022/10/12 03:27:02;;;;;;;12.27;6.13;;;7.70;99.90;;;;;;20785036;28;20049;-49
2022/10/12 03:38:25;;;;;;;10.55;6.50;;;7.60;99.90;;;;;;20738427;28;20088;-49
2022/10/12 03:49:47;;;;;;;13.25;7.28;;;7.40;99.90;;;;;;20575677;28;20046;-50
2022/10/12 04:01:07;;;;;;;13.27;7.25;;;7.30;99.90;;;;;;20573086;28;20366;-51
2022/10/12 04:12:28;;;;;;;16.60;8.02;;;7.30;99.90;;;;;;20413075;29;20083;-52
2022/10/12 04:23:43;;;;;;;20.48;9.23;;;7.10;99.90;;;;;;20391611;29;20051;-50
2022/10/12 04:35:05;;;;;;;13.75;7.85;;;7.20;99.90;;;;;;20333205;29;20044;-49
2022/10/12 04:46:21;;;;;;;12.77;7.25;;;7.10;99.90;;;;;;20331537;29;20096;-48
2022/10/12 04:57:38;;;;;;;14.20;6.20;;;7.10;99.90;;;;;;20188820;29;20122;-50
2022/10/12 05:08:52;;;;;;;10.18;5.97;;;7.00;99.90;;;;;;20193588;29;20451;-52
2022/10/12 05:20:17;;;;;;;17.15;7.80;;;7.20;99.90;;;;;;20174776;29;20108;-49
2022/10/12 05:31:32;;;;;;;14.88;7.05;;;7.20;99.90;;;;;;20115223;29;20049;-52
2022/10/12 05:42:44;;;;;;;12.15;5.95;;;7.10;99.90;;;;;;20025076;29;20102;-49
2022/10/12 05:54:06;;;;;;;8.90;5.32;;;7.20;99.90;;;;;;20026601;29;20605;-52
2022/10/12 06:05:12;;;;;;;11.77;7.55;;;7.50;99.90;;;;;;20027078;29;20105;-49
2022/10/12 06:17:12;;;;;;;12.23;7.03;;;7.80;99.90;;;;;;19959136;29;20115;-50
2022/10/12 06:28:32;;;;;;;19.45;7.45;;;7.80;99.90;;;;;;20023883;29;20098;-49
2022/10/12 06:39:49;;;;;;;15.25;7.78;;;8.00;99.90;;;;;;20032417;29;20114;-51
2022/10/12 06:51:22;;;;;;;12.98;7.97;;;8.40;99.90;;;;;;20063879;29;20120;-52
2022/10/12 07:02:41;;;;;;;14.43;8.32;;;8.90;99.90;;;;;;20118298;29;20084;-52
2022/10/12 07:14:19;;;;;;;15.37;8.93;;;9.50;99.90;;;;;;20315503;29;20048;-52
2022/10/12 07:25:42;;;;;;;15.52;8.93;;;10.40;99.90;;;;;;20258165;29;20060;-50
2022/10/12 07:37:27;;;;;;;15.02;10.05;;;11.20;99.90;;;;;;20142640;29;20041;-50
2022/10/12 07:49:26;;;;;;;13.30;8.13;;;12.40;99.90;;;;;;20003242;29;20118;-61
2022/10/12 08:01:33;;;;;;;11.15;6.78;;;13.60;99.90;;;;;;19996639;29;20099;-49
2022/10/12 08:13:28;;;;;;;10.07;6.35;;;14.50;99.90;;;;;;20114087;29;20410;-50
2022/10/12 08:25:36;;;;;;;9.10;5.10;;;15.40;99.90;;;;;;20162318;29;20456;-59
2022/10/12 08:37:26;;;;;;;8.63;4.82;;;16.20;99.90;;;;;;20210157;29;20049;-60
2022/10/12 08:49:46;;;;;;;10.23;4.82;;;16.30;99.90;;;;;;20128346;29;20069;-61
2022/10/12 09:01:37;;;;;;;7.75;4.72;;;17.30;99.90;;;;;;20284948;29;20044;-52
2022/10/12 09:12:50;;;;;;;7.40;4.47;;;18.40;99.90;;;;;;20330471;29;20048;-49
2022/10/12 09:23:14;;;;;;;8.13;5.00;;;19.40;99.90;;;;;;20284167;29;20292;-50
2022/10/12 09:33:26;;;;;;;10.10;5.28;;;19.10;99.90;;;;;;20359243;29;20581;-51
2022/10/12 09:43:29;;;;;;;7.22;5.22;;;19.00;99.90;;;;;;20401801;29;20107;-61
2022/10/12 09:53:47;;;;;;;9.93;5.05;;;18.80;99.90;;;;;;20589786;28;20109;-49
2022/10/12 10:04:09;;;;;;;8.63;5.57;;;18.20;99.90;;;;;;20580118;28;20042;-61
2022/10/12 10:14:14;;;;;;;8.60;5.72;;;18.30;99.90;;;;;;20638053;28;20042;-48
2022/10/12 10:24:28;;;;;;;9.95;6.57;;;18.50;99.90;;;;;;20687884;28;20432;-52
2022/10/12 10:34:30;;;;;;;12.50;6.32;;;18.20;99.90;;;;;;20765763;28;20099;-48
2022/10/12 10:44:35;;;;;;;12.40;7.32;;;17.80;99.90;;;;;;21010468;28;20348;-51
2022/10/12 10:54:37;;;;;;;10.18;7.25;;;18.10;99.90;;;;;;21081204;28;20036;-61
2022/10/12 11:04:51;;;;;;;12.15;8.05;;;17.40;99.90;;;;;;21058302;28;20358;-49
2022/10/12 11:15:00;;;;;;;12.13;7.22;;;17.40;99.90;;;;;;21081363;28;20036;-49
2022/10/12 11:25:17;;;;;;;13.02;7.57;;;17.50;99.90;;;;;;21058207;28;20036;-57
2022/10/12 11:35:27;;;;;;;10.27;7.13;;;17.50;99.90;;;;;;21078398;28;20080;-50
2022/10/12 11:45:36;;;;;;;13.95;7.93;;;17.80;99.90;;;;;;21078433;28;20073;-53
2022/10/12 11:56:06;;;;;;;10.43;7.60;;;17.70;99.90;;;;;;21076879;28;20036;-53
2022/10/12 12:06:27;;;;;;;10.80;6.80;;;17.60;99.90;;;;;;21076277;28;20032;-60
2022/10/12 12:16:31;;;;;;;11.43;7.32;;;17.20;99.90;;;;;;21075052;28;20125;-49
2022/10/12 12:26:34;;;;;;;13.25;8.10;;;16.80;99.90;;;;;;21053003;28;20489;-53
2022/10/12 12:36:43;;;;;;;15.82;8.48;;;16.80;99.90;;;;;;21073484;28;20105;-53
2022/10/12 12:46:55;;;;;;;13.00;9.37;;;16.50;99.90;;;;;;21073485;28;20480;-51
2022/10/12 12:57:29;;;;;;;12.32;8.13;;;16.30;99.90;;;;;;21073168;28;20032;-50
2022/10/12 13:07:54;;;;;;;11.00;8.18;;;16.40;99.90;;;;;;20798950;28;20422;-53
2022/10/12 13:18:33;;;;;;;13.63;8.82;;;16.30;99.90;;;;;;20796993;28;20042;-49
2022/10/12 13:28:42;;;;;;;13.02;8.30;;;16.30;99.90;;;;;;20809373;28;20108;-51
2022/10/12 13:50:59;;;;;;;14.48;7.72;;;16.10;99.90;;;;;;20989273;28;20028;-53
2022/10/12 14:01:09;;;;;;;15.40;8.15;;;15.90;99.90;;;;;;21070211;28;20557;-50
2022/10/12 14:11:11;;;;;;;10.65;6.50;;;15.80;99.90;;;;;;21069279;28;20097;-60
2022/10/12 14:21:16;;;;;;;11.27;7.68;;;15.60;99.90;;;;;;21038056;28;20033;-50
2022/10/12 14:31:18;;;;;;;11.10;7.25;;;15.30;99.90;;;;;;20917507;28;20544;-60
2022/10/12 14:41:48;;;;;;;9.80;6.35;;;15.00;99.90;;;;;;21034234;28;20040;-52
2022/10/12 14:51:52;;;;;;;9.33;6.07;;;14.70;99.90;;;;;;21084195;28;20032;-60
2022/10/12 15:02:02;;;;;;;13.27;6.88;;;14.50;99.90;;;;;;21082105;28;20286;-50
2022/10/12 15:12:05;;;;;;;15.10;7.70;;;14.40;99.90;;;;;;21081107;28;20035;-60
2022/10/12 15:22:20;;;;;;;9.30;6.18;;;14.10;99.90;;;;;;21059293;28;20036;-48
2022/10/12 15:32:22;;;;;;;11.13;6.88;;;13.90;99.90;;;;;;21079432;28;20047;-51
2022/10/12 15:42:24;;;;;;;9.35;6.70;;;13.50;99.90;;;;;;21077649;28;20405;-52
2022/10/12 15:52:27;;;;;;;13.48;7.28;;;12.80;99.90;;;;;;21078022;28;20067;-57
2022/10/12 16:02:30;;;;;;;11.48;7.05;;;12.20;99.90;;;;;;21077512;28;20089;-50
2022/10/12 16:12:32;;;;;;;10.88;8.02;;;11.60;99.90;;;;;;21076471;28;20032;-51
2022/10/12 16:22:36;;;;;;;11.18;8.02;;;11.10;99.90;;;;;;21037217;28;20044;-52
2022/10/12 16:32:38;;;;;;;15.35;9.57;;;10.50;99.90;;;;;;20991664;28;20040;-49
2022/10/12 16:42:41;;;;;;;19.52;10.95;;;10.00;99.90;;;;;;21061409;28;20040;-52
2022/10/12 16:52:44;;;;;;;16.42;11.18;;;9.60;99.90;;;;;;21071932;28;20433;-49
2022/10/12 17:02:47;;;;;;;18.23;11.15;;;9.30;99.90;;;;;;21072998;28;20089;-57
2022/10/12 17:12:50;;;;;;;22.88;12.05;;;9.20;99.90;;;;;;21070164;28;20036;-52
2022/10/12 17:22:53;;;;;;;22.25;13.00;;;9.00;99.90;;;;;;21048025;28;20061;-51
2022/10/12 17:32:55;;;;;;;21.77;13.52;;;8.90;99.90;;;;;;21072341;28;20040;-50
2022/10/12 17:42:58;;;;;;;18.90;11.90;;;8.90;99.90;;;;;;21071773;28;20121;-51
2022/10/12 17:53:00;;;;;;;23.75;13.90;;;8.90;99.90;;;;;;21071503;28;20036;-52
2022/10/12 18:03:04;;;;;;;27.65;16.08;;;8.80;99.90;;;;;;21074773;28;20036;-53
2022/10/12 18:13:07;;;;;;;28.33;15.93;;;8.70;99.90;;;;;;21081404;28;20032;-52
2022/10/12 18:23:10;;;;;;;27.20;17.17;;;8.50;99.90;;;;;;21062271;28;20077;-50
2022/10/12 18:33:14;;;;;;;32.28;17.92;;;8.30;99.90;;;;;;21067279;28;20044;-59
2022/10/12 18:43:16;;;;;;;32.55;18.95;;;8.30;99.90;;;;;;21082366;28;20048;-50
2022/10/12 18:53:19;;;;;;;36.72;20.38;;;8.10;99.90;;;;;;21082005;28;20089;-54
2022/10/12 19:03:24;;;;;;;34.22;20.50;;;8.00;99.90;;;;;;21081474;28;20032;-52
2022/10/12 19:13:26;;;;;;;30.45;17.50;;;8.00;99.90;;;;;;21077006;28;20040;-51
2022/10/12 19:23:29;;;;;;;30.27;18.67;;;8.00;99.90;;;;;;21042014;28;20036;-51
2022/10/12 19:33:32;;;;;;;30.65;17.85;;;8.20;99.90;;;;;;21079091;28;20089;-50
2022/10/12 19:43:36;;;;;;;25.92;15.35;;;7.90;99.90;;;;;;21060768;28;20066;-50
2022/10/12 19:53:40;;;;;;;28.30;15.93;;;7.80;99.90;;;;;;21059715;28;20044;-48
2022/10/12 20:03:45;;;;;;;28.67;16.30;;;7.70;99.90;;;;;;21076752;28;20393;-50
2022/10/12 20:13:49;;;;;;;31.52;18.05;;;7.60;99.90;;;;;;21075756;28;20032;-49
2022/10/12 20:23:52;;;;;;;28.30;17.95;;;7.60;99.90;;;;;;21053809;28;20036;-51
2022/10/12 20:33:56;;;;;;;30.33;16.60;;;7.60;99.90;;;;;;21074816;28;20031;-58
2022/10/12 20:43:59;;;;;;;33.58;18.50;;;7.50;99.90;;;;;;21073603;28;20455;-58
2022/10/12 20:54:04;;;;;;;47.28;24.00;;;7.60;99.90;;;;;;21056756;28;20028;-53
2022/10/12 21:04:11;;;;;;;30.13;17.80;;;7.60;99.90;;;;;;21073587;28;20028;-50
2022/10/12 21:14:13;;;;;;;27.88;16.42;;;7.50;99.90;;;;;;21056252;28;20040;-50
2022/10/12 21:24:16;;;;;;;31.58;18.08;;;7.60;99.90;;;;;;21051688;28;20040;-51
2022/10/12 21:34:18;;;;;;;32.13;19.10;;;7.60;99.90;;;;;;21071931;28;20028;-49
2022/10/12 21:44:21;;;;;;;32.67;18.35;;;7.70;99.90;;;;;;21032977;28;20374;-53
2022/10/12 21:54:23;;;;;;;36.22;20.85;;;7.90;99.90;;;;;;21029323;28;20032;-50
2022/10/12 22:04:26;;;;;;;36.00;21.67;;;8.20;99.90;;;;;;21069433;28;20439;-48
2022/10/12 22:14:29;;;;;;;33.58;20.02;;;8.50;99.90;;;;;;21068899;28;20089;-51
2022/10/12 22:24:32;;;;;;;31.75;17.60;;;8.70;99.90;;;;;;21063800;28;20032;-50
2022/10/12 22:34:34;;;;;;;23.40;15.80;;;8.80;99.90;;;;;;21083726;28;20085;-52
2022/10/12 22:44:36;;;;;;;27.55;16.10;;;8.80;99.90;;;;;;21083170;28;20052;-60
2022/10/12 22:54:39;;;;;;;24.70;14.15;;;8.50;99.90;;;;;;21081538;28;20058;-51
2022/10/12 23:04:43;;;;;;;24.83;15.32;;;8.40;99.90;;;;;;21081188;28;20507;-50
2022/10/12 23:14:45;;;;;;;25.63;12.73;;;8.70;99.90;;;;;;21080671;28;20093;-51
2022/10/12 23:24:47;;;;;;;23.80;13.68;;;8.90;99.90;;;;;;21058835;28;20036;-49
2022/10/12 23:34:50;;;;;;;20.95;13.82;;;9.10;99.90;;;;;;21078994;28;20024;-50
2022/10/12 23:44:52;;;;;;;22.52;14.25;;;9.30;99.90;;;;;;21078334;28;20048;-51
2022/10/12 23:54:55;;;;;;;24.00;14.98;;;9.30;99.90;;;;;;21077326;28;20504;-52
